createdAt,value
2022-11-27T00:05:21.596Z,993.9
2022-11-27T00:19:52.154Z,993.7
2022-11-27T00:34:22.473Z,993.6
2022-11-27T00:48:54.006Z,993.5
2022-11-27T01:03:22.513Z,993.5
2022-11-27T01:17:51.977Z,993.5
2022-11-27T01:32:23.172Z,993.5
2022-11-27T01:46:54.617Z,993.5
2022-11-27T02:01:23.926Z,993.4
2022-11-27T02:15:55.124Z,993.3
2022-11-27T02:30:22.444Z,993
2022-11-27T02:44:52.054Z,992.8
2022-11-27T02:59:21.427Z,992.9
2022-11-27T03:13:51.272Z,992.6
2022-11-27T03:28:21.389Z,992.4
2022-11-27T03:42:51.147Z,992.2
2022-11-27T03:57:20.403Z,992.1
2022-11-27T04:11:56.991Z,992.1
2022-11-27T04:26:23.874Z,992.2
2022-11-27T04:40:54.962Z,992
2022-11-27T04:55:25.193Z,991.7
2022-11-27T05:09:55.714Z,991.6
2022-11-27T05:24:25.207Z,991.4
2022-11-27T05:38:56.881Z,991.3
2022-11-27T05:53:26.783Z,991.1
2022-11-27T06:07:57.459Z,990.9
2022-11-27T06:22:29.549Z,990.9
2022-11-27T06:37:00.966Z,990.7
2022-11-27T06:51:30.658Z,990.6
2022-11-27T07:06:00.633Z,990.4
2022-11-27T07:20:31.632Z,990.4
2022-11-27T07:35:02.597Z,990.2
2022-11-27T07:49:32.836Z,990.1
2022-11-27T08:04:04.159Z,990
2022-11-27T08:18:34.003Z,990
2022-11-27T08:33:03.031Z,989.9
2022-11-27T08:47:34.191Z,989.7
2022-11-27T09:02:10.086Z,989.5
2022-11-27T09:16:39.420Z,989.4
2022-11-27T09:31:09.215Z,989.1
2022-11-27T09:45:40.823Z,989.1
2022-11-27T10:00:11.592Z,989.1
2022-11-27T10:14:43.649Z,989.2
2022-11-27T10:29:12.366Z,988.9
2022-11-27T10:43:42.817Z,988.8
2022-11-27T10:58:13.566Z,988.5
2022-11-27T11:12:45.379Z,988.3
2022-11-27T11:27:16.182Z,988
2022-11-27T11:41:53.612Z,987.9
2022-11-27T11:56:20.423Z,987.6
2022-11-27T12:10:49.783Z,987.4
2022-11-27T12:25:20.608Z,987.2
2022-11-27T12:39:51.576Z,986.8
2022-11-27T12:54:22.557Z,986.5
2022-11-27T13:08:53.192Z,986.1
2022-11-27T13:23:24.271Z,985.7
2022-11-27T13:37:55.192Z,985.4
2022-11-27T13:52:24.479Z,985.2
2022-11-27T14:06:54.582Z,985.2
2022-11-27T14:21:23.057Z,985
2022-11-27T14:35:53.411Z,985.2
2022-11-27T14:50:23.324Z,985.1
2022-11-27T15:04:53.443Z,985.3
2022-11-27T15:19:23.495Z,985.2
2022-11-27T15:33:55.972Z,985
2022-11-27T15:48:26.599Z,985
2022-11-27T16:02:55.737Z,984.9
2022-11-27T16:17:28.443Z,984.7
2022-11-27T16:31:58.174Z,984.5
2022-11-27T16:46:27.969Z,984.5
2022-11-27T17:00:58.280Z,984.3
2022-11-27T17:15:40.915Z,983.9
2022-11-27T17:30:03.766Z,983.7
2022-11-27T17:44:34.049Z,983.4
2022-11-27T17:59:06.505Z,983.3
2022-11-27T18:13:34.680Z,983
2022-11-27T18:28:04.786Z,983
2022-11-27T18:42:34.494Z,982.7
2022-11-27T18:57:00.483Z,982.7
2022-11-27T19:11:30.780Z,982.5
2022-11-27T19:26:02.209Z,982.2
2022-11-27T19:40:31.895Z,981.9
2022-11-27T19:55:01.524Z,981.8
2022-11-27T20:09:31.888Z,981.9
2022-11-27T20:24:01.798Z,981.8
2022-11-27T20:38:32.003Z,981.4
2022-11-27T20:53:01.897Z,981.4
2022-11-27T21:07:32.142Z,981.3
2022-11-27T21:22:03.266Z,981.2
2022-11-27T21:36:33.501Z,981
2022-11-27T21:51:04.244Z,981.2
2022-11-27T22:05:34.706Z,981.1
2022-11-27T22:20:05.675Z,980.8
2022-11-27T22:34:37.343Z,980.8
2022-11-27T22:49:07.691Z,980.4
2022-11-27T23:03:38.683Z,980.4
2022-11-27T23:18:07.686Z,980.1
2022-11-27T23:32:37.951Z,980.1
2022-11-27T23:47:09.558Z,980
